createdAt,value
2022-10-18T00:01:25.609Z,88.15
2022-10-18T00:03:53.898Z,85.60
2022-10-18T00:06:21.980Z,85.71
2022-10-18T00:08:50.077Z,85.50
2022-10-18T00:11:18.416Z,86.95
2022-10-18T00:13:48.021Z,86.65
2022-10-18T00:16:17.826Z,86.47
2022-10-18T00:18:48.228Z,86.71
2022-10-18T00:21:19.964Z,85.47
2022-10-18T00:23:49.666Z,84.46
2022-10-18T00:26:19.996Z,83.27
2022-10-18T00:28:53.101Z,83.81
2022-10-18T00:31:23.872Z,83.69
2022-10-18T00:33:55.091Z,83.51
2022-10-18T00:36:23.874Z,82.65
2022-10-18T00:38:52.386Z,81.60
2022-10-18T00:41:22.327Z,81.98
2022-10-18T00:43:58.247Z,81.97
2022-10-18T00:46:28.993Z,81.65
2022-10-18T00:48:59.289Z,82.72
2022-10-18T00:51:32.093Z,82.21
2022-10-18T00:54:00.490Z,82.72
2022-10-18T00:56:29.170Z,82.65
2022-10-18T00:58:59.127Z,82.17
2022-10-18T01:01:28.443Z,81.56
2022-10-18T01:03:58.288Z,82.09
2022-10-18T01:06:28.559Z,81.58
2022-10-18T01:09:21.243Z,80.76
2022-10-18T01:12:05.731Z,81.93
2022-10-18T01:14:46.846Z,82.46
2022-10-18T01:17:20.453Z,83.18
2022-10-18T01:20:17.029Z,83.26
2022-10-18T01:22:47.934Z,83.37
2022-10-18T01:25:28.655Z,84.44
2022-10-18T01:28:03.775Z,84.78
2022-10-18T01:30:41.278Z,85.38
2022-10-18T01:33:18.736Z,84.63
2022-10-18T01:35:53.515Z,83.88
2022-10-18T01:38:23.641Z,84.21
2022-10-18T01:40:54.461Z,83.77
2022-10-18T01:43:25.799Z,83.26
2022-10-18T01:45:57.064Z,82.60
2022-10-18T01:48:25.386Z,82.33
2022-10-18T01:50:54.714Z,82.73
2022-10-18T01:53:25.127Z,83.07
2022-10-18T01:56:06.892Z,83.04
2022-10-18T01:58:42.766Z,83.62
2022-10-18T02:01:20.815Z,83.42
2022-10-18T02:03:56.182Z,83.49
2022-10-18T02:06:30.322Z,83.37
2022-10-18T02:09:04.229Z,82.88
2022-10-18T02:11:35.183Z,83.16
2022-10-18T02:14:09.168Z,84.00
2022-10-18T02:16:42.635Z,83.52
2022-10-18T02:19:15.782Z,82.97
2022-10-18T02:21:45.357Z,82.46
2022-10-18T02:24:19.526Z,82.39
2022-10-18T02:26:47.731Z,82.53
2022-10-18T02:29:16.040Z,82.58
2022-10-18T02:31:48.691Z,82.84
2022-10-18T02:34:21.798Z,83.51
2022-10-18T02:36:53.855Z,83.79
2022-10-18T02:39:25.081Z,83.57
2022-10-18T02:41:54.775Z,83.75
2022-10-18T02:44:22.897Z,82.99
2022-10-18T02:46:53.360Z,83.46
2022-10-18T02:49:21.393Z,84.17
2022-10-18T02:51:49.466Z,84.51
2022-10-18T02:54:17.485Z,85.02
2022-10-18T02:56:45.853Z,84.60
2022-10-18T02:59:14.295Z,84.92
2022-10-18T03:01:42.816Z,84.82
2022-10-18T03:04:12.490Z,84.91
2022-10-18T03:06:40.526Z,85.45
2022-10-18T03:09:08.653Z,85.85
2022-10-18T03:11:36.707Z,85.40
2022-10-18T03:14:04.800Z,86.69
2022-10-18T03:16:34.038Z,86.09
2022-10-18T03:19:02.010Z,87.13
2022-10-18T03:21:31.697Z,87.86
2022-10-18T03:24:00.152Z,89.24
2022-10-18T03:26:28.232Z,91.77
2022-10-18T03:28:57.240Z,94.12
2022-10-18T03:31:25.460Z,96.99
2022-10-18T03:33:53.615Z,97.53
2022-10-18T03:36:22.004Z,96.83
2022-10-18T03:38:51.471Z,95.58
2022-10-18T03:41:20.768Z,95.65
2022-10-18T03:43:48.904Z,94.45
2022-10-18T03:46:17.205Z,94.80
2022-10-18T03:48:45.314Z,95.41
2022-10-18T03:51:13.391Z,94.33
2022-10-18T03:53:42.140Z,93.55
2022-10-18T03:56:11.857Z,92.48
2022-10-18T03:58:39.971Z,92.77
2022-10-18T04:01:08.394Z,94.18
2022-10-18T04:03:36.318Z,93.60
2022-10-18T04:06:04.330Z,92.91
2022-10-18T04:08:32.275Z,91.71
2022-10-18T04:11:00.209Z,91.89
2022-10-18T04:13:29.690Z,92.16
2022-10-18T04:15:58.054Z,92.36
2022-10-18T04:18:26.087Z,92.06
2022-10-18T04:20:54.092Z,92.50
2022-10-18T04:23:22.191Z,93.48
2022-10-18T04:25:50.294Z,92.80
2022-10-18T04:28:18.784Z,92.41
2022-10-18T04:30:52.554Z,92.12
2022-10-18T04:33:20.895Z,92.33
2022-10-18T04:35:52.236Z,92.38
2022-10-18T04:38:20.417Z,92.32
2022-10-18T04:40:48.461Z,92.81
2022-10-18T04:43:16.866Z,93.01
2022-10-18T04:45:46.160Z,93.54
2022-10-18T04:48:15.735Z,93.75
2022-10-18T04:50:43.779Z,93.89
2022-10-18T04:53:11.679Z,93.97
2022-10-18T04:55:39.587Z,94.66
2022-10-18T04:58:07.488Z,94.78
2022-10-18T05:00:39.875Z,95.06
2022-10-18T05:03:08.261Z,94.90
2022-10-18T05:05:49.799Z,95.18
2022-10-18T05:08:25.987Z,95.19
2022-10-18T05:10:54.039Z,94.87
2022-10-18T05:13:22.026Z,94.71
2022-10-18T05:15:50.179Z,94.09
2022-10-18T05:18:18.203Z,94.18
2022-10-18T05:20:48.271Z,93.58
2022-10-18T05:23:16.296Z,94.35
2022-10-18T05:25:44.908Z,95.21
2022-10-18T05:28:38.312Z,95.78
2022-10-18T05:31:03.440Z,95.86
2022-10-18T05:33:31.826Z,96.91
2022-10-18T05:36:01.408Z,98.00
2022-10-18T05:38:31.207Z,96.79
2022-10-18T05:40:59.558Z,96.25
2022-10-18T05:43:29.810Z,95.22
2022-10-18T05:45:58.114Z,95.72
2022-10-18T05:48:26.797Z,94.67
2022-10-18T05:50:55.324Z,92.88
2022-10-18T05:53:36.311Z,91.89
2022-10-18T05:56:05.918Z,90.69
2022-10-18T05:58:34.562Z,89.70
2022-10-18T06:01:03.016Z,90.64
2022-10-18T06:03:31.835Z,89.73
2022-10-18T06:06:03.609Z,89.12
2022-10-18T06:08:33.793Z,88.24
2022-10-18T06:11:07.215Z,87.96
2022-10-18T06:13:35.605Z,87.13
2022-10-18T06:16:03.812Z,87.18
2022-10-18T06:18:32.294Z,86.64
2022-10-18T06:21:01.225Z,85.09
2022-10-18T06:23:29.984Z,82.62
2022-10-18T06:26:02.738Z,82.35
2022-10-18T06:28:31.625Z,83.06
2022-10-18T06:31:00.148Z,80.40
2022-10-18T06:33:28.307Z,80.45
2022-10-18T06:35:58.427Z,79.23
2022-10-18T06:38:27.312Z,76.07
2022-10-18T06:40:56.263Z,77.56
2022-10-18T06:43:27.032Z,75.44
2022-10-18T06:45:55.664Z,72.77
2022-10-18T06:48:24.373Z,70.40
2022-10-18T06:50:54.426Z,71.82
2022-10-18T06:53:22.598Z,69.23
2022-10-18T06:55:50.773Z,67.06
2022-10-18T06:58:19.177Z,68.14
2022-10-18T07:00:48.747Z,66.55
2022-10-18T07:03:17.285Z,67.32
2022-10-18T07:05:45.462Z,67.27
2022-10-18T07:08:13.501Z,66.01
2022-10-18T07:10:41.861Z,67.36
2022-10-18T07:16:05.092Z,67.01
2022-10-18T07:18:34.787Z,66.89
2022-10-18T07:21:04.387Z,66.82
2022-10-18T07:23:33.937Z,64.83
2022-10-18T07:26:02.530Z,62.75
2022-10-18T07:28:31.207Z,63.08
2022-10-18T07:31:06.216Z,62.19
2022-10-18T07:33:38.049Z,59.52
2022-10-18T07:36:08.318Z,62.07
2022-10-18T07:38:37.175Z,60.26
2022-10-18T07:41:07.748Z,59.17
2022-10-18T07:43:36.704Z,59.88
2022-10-18T07:46:06.276Z,57.68
2022-10-18T07:48:36.423Z,57.66
2022-10-18T07:51:04.823Z,57.06
2022-10-18T07:53:34.991Z,58.94
2022-10-18T07:56:08.755Z,58.62
2022-10-18T07:58:37.833Z,56.51
2022-10-18T08:01:08.184Z,58.89
2022-10-18T08:03:38.987Z,57.85
2022-10-18T08:06:09.986Z,56.59
2022-10-18T08:08:40.290Z,56.73
2022-10-18T08:11:10.330Z,57.64
2022-10-18T08:13:38.608Z,59.53
2022-10-18T08:16:08.470Z,56.39
2022-10-18T08:18:38.677Z,57.34
2022-10-18T08:21:08.984Z,55.64
2022-10-18T08:23:38.188Z,55.84
2022-10-18T08:26:08.274Z,56.65
2022-10-18T08:28:37.188Z,54.47
2022-10-18T08:31:06.339Z,54.68
2022-10-18T08:33:36.049Z,53.83
2022-10-18T08:36:07.447Z,54.13
2022-10-18T08:38:37.507Z,54.42
2022-10-18T08:41:28.169Z,53.53
2022-10-18T08:44:07.441Z,52.64
2022-10-18T08:46:38.457Z,53.03
2022-10-18T08:49:08.673Z,51.64
2022-10-18T08:51:43.126Z,51.68
2022-10-18T08:54:15.020Z,52.07
2022-10-18T08:56:53.948Z,51.67
2022-10-18T08:59:24.783Z,51.80
2022-10-18T09:02:04.542Z,52.17
2022-10-18T09:04:46.405Z,52.02
2022-10-18T09:07:27.319Z,52.48
2022-10-18T09:10:04.389Z,51.92
2022-10-18T09:12:52.822Z,52.13
2022-10-18T09:15:26.837Z,50.80
2022-10-18T09:18:10.543Z,51.31
2022-10-18T09:20:51.167Z,51.45
2022-10-18T09:23:23.848Z,50.55
2022-10-18T09:25:57.435Z,50.29
2022-10-18T09:28:38.287Z,51.69
2022-10-18T09:31:14.121Z,50.92
2022-10-18T09:33:49.609Z,50.04
2022-10-18T09:36:22.671Z,51.60
2022-10-18T09:38:57.339Z,50.48
2022-10-18T09:41:30.350Z,51.16
2022-10-18T09:44:03.631Z,52.60
2022-10-18T09:46:35.280Z,51.97
2022-10-18T09:49:05.924Z,51.72
2022-10-18T09:51:37.917Z,51.41
2022-10-18T09:54:19.219Z,51.43
2022-10-18T09:56:52.268Z,50.99
2022-10-18T09:59:33.041Z,51.34
2022-10-18T10:02:01.284Z,52.18
2022-10-18T10:04:30.027Z,50.34
2022-10-18T10:07:02.022Z,51.67
2022-10-18T10:09:37.657Z,51.27
2022-10-18T10:12:06.146Z,50.47
2022-10-18T10:14:45.389Z,50.24
2022-10-18T10:17:26.569Z,49.77
2022-10-18T10:19:58.811Z,51.35
2022-10-18T10:22:32.366Z,51.33
2022-10-18T10:25:02.333Z,51.38
2022-10-18T10:27:33.644Z,51.65
2022-10-18T10:30:07.038Z,50.05
2022-10-18T10:32:47.367Z,49.57
2022-10-18T10:35:35.310Z,51.08
2022-10-18T10:38:24.869Z,50.78
2022-10-18T10:40:55.762Z,50.11
2022-10-18T10:43:42.799Z,50.99
2022-10-18T10:46:14.311Z,49.18
2022-10-18T10:48:50.617Z,50.23
2022-10-18T10:51:29.961Z,49.13
2022-10-18T10:54:04.173Z,49.27
2022-10-18T10:56:37.408Z,50.32
2022-10-18T10:59:17.366Z,49.21
2022-10-18T11:01:47.958Z,50.32
2022-10-18T11:04:28.299Z,49.16
2022-10-18T11:07:06.334Z,49.07
2022-10-18T11:09:55.824Z,48.86
2022-10-18T11:12:33.419Z,48.36
2022-10-18T11:15:20.146Z,48.18
2022-10-18T11:17:57.094Z,47.60
2022-10-18T11:20:31.019Z,47.82
2022-10-18T11:23:02.395Z,47.95
2022-10-18T11:25:56.315Z,47.25
2022-10-18T11:28:38.849Z,46.18
2022-10-18T11:31:16.763Z,47.07
2022-10-18T11:34:08.894Z,46.48
2022-10-18T11:37:02.255Z,47.36
2022-10-18T11:39:48.170Z,46.11
2022-10-18T11:42:24.629Z,46.33
2022-10-18T11:45:05.240Z,44.92
2022-10-18T11:47:43.835Z,45.19
2022-10-18T11:50:26.777Z,44.72
2022-10-18T11:53:02.117Z,45.57
2022-10-18T11:55:43.853Z,44.98
2022-10-18T11:58:28.892Z,44.47
2022-10-18T12:01:06.224Z,43.72
2022-10-18T12:03:40.090Z,42.71
2022-10-18T12:06:13.372Z,42.70
2022-10-18T12:08:45.387Z,42.37
2022-10-18T12:11:19.355Z,44.14
2022-10-18T12:13:51.567Z,45.03
2022-10-18T12:16:45.672Z,44.82
2022-10-18T12:19:23.561Z,43.56
2022-10-18T12:21:55.257Z,43.30
2022-10-18T12:24:27.466Z,44.58
2022-10-18T12:27:00.240Z,43.66
2022-10-18T12:29:33.215Z,42.99
2022-10-18T12:32:08.252Z,43.64
2022-10-18T12:34:41.484Z,42.54
2022-10-18T12:37:31.952Z,41.90
2022-10-18T12:40:10.528Z,42.36
2022-10-18T12:42:44.817Z,44.37
2022-10-18T12:45:30.459Z,44.56
2022-10-18T12:48:03.276Z,44.24
2022-10-18T12:50:36.227Z,44.81
2022-10-18T12:53:08.598Z,43.60
2022-10-18T12:55:38.488Z,45.93
2022-10-18T12:58:27.917Z,41.97
2022-10-18T13:01:02.557Z,45.39
2022-10-18T13:03:54.467Z,44.35
2022-10-18T13:06:25.096Z,42.31
2022-10-18T13:09:19.838Z,42.33
2022-10-18T13:11:48.052Z,44.71
2022-10-18T13:14:37.145Z,43.36
2022-10-18T13:17:23.355Z,41.60
2022-10-18T13:20:24.512Z,44.68
2022-10-18T13:23:04.565Z,45.60
2022-10-18T13:25:41.294Z,45.67
2022-10-18T13:28:24.979Z,43.34
2022-10-18T13:30:58.973Z,46.18
2022-10-18T13:33:33.027Z,43.32
2022-10-18T13:36:04.205Z,43.98
2022-10-18T13:39:03.497Z,43.05
2022-10-18T13:41:35.527Z,43.41
2022-10-18T13:44:28.319Z,44.76
2022-10-18T13:47:36.820Z,44.58
2022-10-18T13:50:32.293Z,44.84
2022-10-18T13:53:35.731Z,46.05
2022-10-18T13:56:31.355Z,45.45
2022-10-18T13:59:31.969Z,44.64
2022-10-18T14:02:49.911Z,44.87
2022-10-18T14:05:29.964Z,45.98
2022-10-18T14:08:09.508Z,45.89
2022-10-18T14:11:01.447Z,46.37
2022-10-18T14:13:41.130Z,46.50
2022-10-18T14:16:27.617Z,47.08
2022-10-18T14:19:02.913Z,45.48
2022-10-18T14:21:37.770Z,47.05
2022-10-18T14:24:19.204Z,47.95
2022-10-18T14:26:48.164Z,49.06
2022-10-18T14:29:21.645Z,47.90
2022-10-18T14:31:56.007Z,47.89
2022-10-18T14:34:24.802Z,49.29
2022-10-18T14:36:53.507Z,49.60
2022-10-18T14:39:25.601Z,49.50
2022-10-18T14:41:55.020Z,49.69
2022-10-18T14:44:28.304Z,49.35
2022-10-18T14:47:02.411Z,49.70
2022-10-18T14:49:31.144Z,50.27
2022-10-18T14:52:02.072Z,50.32
2022-10-18T14:54:33.782Z,49.94
2022-10-18T14:57:03.376Z,50.93
2022-10-18T14:59:36.284Z,51.42
2022-10-18T15:02:13.420Z,51.54
2022-10-18T15:04:45.520Z,52.34
2022-10-18T15:07:17.196Z,52.04
2022-10-18T15:09:46.461Z,53.46
2022-10-18T15:12:16.900Z,54.18
2022-10-18T15:14:47.944Z,54.53
2022-10-18T15:17:22.544Z,55.36
2022-10-18T15:20:05.975Z,56.25
2022-10-18T15:22:35.486Z,57.25
2022-10-18T15:25:17.127Z,57.79
2022-10-18T15:27:48.011Z,57.91
2022-10-18T15:30:25.746Z,57.89
2022-10-18T15:32:56.310Z,57.70
2022-10-18T15:35:28.902Z,57.73
2022-10-18T15:37:58.649Z,57.80
2022-10-18T15:40:39.390Z,57.64
2022-10-18T15:43:40.980Z,58.07
2022-10-18T15:46:32.290Z,58.41
2022-10-18T15:49:48.701Z,58.64
2022-10-18T15:52:38.631Z,59.01
2022-10-18T15:55:44.986Z,59.40
2022-10-18T15:58:17.594Z,58.84
2022-10-18T16:00:47.539Z,58.88
2022-10-18T16:03:18.651Z,59.42
2022-10-18T16:05:46.954Z,60.16
2022-10-18T16:08:23.770Z,60.32
2022-10-18T16:10:52.562Z,60.24
2022-10-18T16:13:21.273Z,61.00
2022-10-18T16:15:49.665Z,61.00
2022-10-18T16:18:21.374Z,61.13
2022-10-18T16:20:50.092Z,61.43
2022-10-18T16:23:21.346Z,62.00
2022-10-18T16:25:50.367Z,61.74
2022-10-18T16:28:20.587Z,61.36
2022-10-18T16:30:54.847Z,61.45
2022-10-18T16:33:24.755Z,62.55
2022-10-18T16:35:53.726Z,62.84
2022-10-18T16:38:32.557Z,62.84
2022-10-18T16:41:04.203Z,62.81
2022-10-18T16:43:32.900Z,62.76
2022-10-18T16:46:01.182Z,62.86
2022-10-18T16:48:30.988Z,63.70
2022-10-18T16:50:59.717Z,63.75
2022-10-18T16:53:28.216Z,63.17
2022-10-18T16:55:59.232Z,63.39
2022-10-18T16:58:28.880Z,63.67
2022-10-18T17:00:57.520Z,64.48
2022-10-18T17:03:26.734Z,64.18
2022-10-18T17:05:57.083Z,64.04
2022-10-18T17:08:27.160Z,64.60
2022-10-18T17:10:57.821Z,64.69
2022-10-18T17:13:27.319Z,64.61
2022-10-18T17:15:55.735Z,64.57
2022-10-18T17:18:27.685Z,65.06
2022-10-18T17:20:57.319Z,64.86
2022-10-18T17:23:25.746Z,63.47
2022-10-18T17:26:06.693Z,63.35
2022-10-18T17:28:42.888Z,64.71
2022-10-18T17:31:11.062Z,65.48
2022-10-18T17:33:39.259Z,65.09
2022-10-18T17:36:09.176Z,66.25
2022-10-18T17:38:37.357Z,65.99
2022-10-18T17:41:08.680Z,67.04
2022-10-18T17:46:13.004Z,66.73
2022-10-18T17:48:41.288Z,68.47
2022-10-18T17:51:12.699Z,68.17
2022-10-18T17:53:40.993Z,68.64
2022-10-18T17:56:09.536Z,69.00
2022-10-18T17:58:38.114Z,69.17
2022-10-18T18:01:14.416Z,68.85
2022-10-18T18:03:43.156Z,68.79
2022-10-18T18:06:18.495Z,68.81
2022-10-18T18:08:47.093Z,69.85
2022-10-18T18:11:16.052Z,69.69
2022-10-18T18:13:44.227Z,68.52
2022-10-18T18:16:15.032Z,68.18
2022-10-18T18:18:43.682Z,69.79
2022-10-18T18:21:12.361Z,70.46
2022-10-18T18:23:42.248Z,70.65
2022-10-18T18:26:10.536Z,71.03
2022-10-18T18:28:39.065Z,71.41
2022-10-18T18:31:08.240Z,71.32
2022-10-18T18:33:36.567Z,71.25
2022-10-18T18:36:05.449Z,72.40
2022-10-18T18:38:35.097Z,71.37
2022-10-18T18:41:10.076Z,70.98
2022-10-18T18:43:39.284Z,72.08
2022-10-18T18:46:07.626Z,73.06
2022-10-18T18:48:36.837Z,73.25
2022-10-18T18:51:06.374Z,72.99
2022-10-18T18:53:34.491Z,73.37
2022-10-18T18:56:04.307Z,72.88
2022-10-18T18:58:35.598Z,73.61
2022-10-18T19:01:08.365Z,73.35
2022-10-18T19:03:38.514Z,73.34
2022-10-18T19:06:08.054Z,72.70
2022-10-18T19:08:37.809Z,72.55
2022-10-18T19:11:09.188Z,72.07
2022-10-18T19:13:39.296Z,72.27
2022-10-18T19:16:22.614Z,72.50
2022-10-18T19:18:56.427Z,72.43
2022-10-18T19:21:28.635Z,72.31
2022-10-18T19:23:57.431Z,71.95
2022-10-18T19:26:29.782Z,71.44
2022-10-18T19:29:07.982Z,71.34
2022-10-18T19:31:36.707Z,72.82
2022-10-18T19:34:05.702Z,73.51
2022-10-18T19:36:33.895Z,75.04
2022-10-18T19:39:02.727Z,75.27
2022-10-18T19:41:31.069Z,75.29
2022-10-18T19:43:59.712Z,75.71
2022-10-18T19:46:29.252Z,76.15
2022-10-18T19:48:57.621Z,76.92
2022-10-18T19:51:28.367Z,76.78
2022-10-18T19:53:57.933Z,77.21
2022-10-18T19:56:28.175Z,78.52
2022-10-18T19:58:57.576Z,78.64
2022-10-18T20:01:26.305Z,78.42
2022-10-18T20:03:56.196Z,78.25
2022-10-18T20:06:24.789Z,78.22
2022-10-18T20:08:53.367Z,78.24
2022-10-18T20:11:24.147Z,78.58
2022-10-18T20:13:53.317Z,77.66
2022-10-18T20:16:27.881Z,77.22
2022-10-18T20:18:59.068Z,77.96
2022-10-18T20:21:29.517Z,78.56
2022-10-18T20:23:58.918Z,78.76
2022-10-18T20:26:27.237Z,79.51
2022-10-18T20:28:58.137Z,80.06
2022-10-18T20:31:28.631Z,79.93
2022-10-18T20:34:00.356Z,80.29
2022-10-18T20:36:29.878Z,79.54
2022-10-18T20:38:58.578Z,79.99
2022-10-18T20:41:29.196Z,79.74
2022-10-18T20:43:59.461Z,79.41
2022-10-18T20:46:28.286Z,78.76
2022-10-18T20:48:56.415Z,78.62
2022-10-18T20:51:26.694Z,77.75
2022-10-18T20:53:55.308Z,77.93
2022-10-18T20:56:26.735Z,78.26
2022-10-18T20:58:57.246Z,79.24
2022-10-18T21:01:27.447Z,80.29
2022-10-18T21:03:57.416Z,80.30
2022-10-18T21:06:28.400Z,79.94
2022-10-18T21:08:58.543Z,79.33
2022-10-18T21:11:28.265Z,78.92
2022-10-18T21:13:59.128Z,78.83
2022-10-18T21:16:28.086Z,78.48
2022-10-18T21:18:56.499Z,78.16
2022-10-18T21:21:26.811Z,78.39
2022-10-18T21:23:55.275Z,79.23
2022-10-18T21:26:25.656Z,79.20
2022-10-18T21:28:55.442Z,79.02
2022-10-18T21:31:25.733Z,79.21
2022-10-18T21:33:55.531Z,79.77
2022-10-18T21:36:24.309Z,80.17
2022-10-18T21:38:54.608Z,80.46
2022-10-18T21:41:23.472Z,80.58
2022-10-18T21:43:53.563Z,80.77
2022-10-18T21:46:23.847Z,80.67
2022-10-18T21:48:53.929Z,80.46
2022-10-18T21:51:25.626Z,80.83
2022-10-18T21:53:57.094Z,81.37
2022-10-18T21:56:27.181Z,81.39
2022-10-18T21:58:55.825Z,81.31
2022-10-18T22:01:26.301Z,81.39
2022-10-18T22:03:56.226Z,81.20
2022-10-18T22:06:25.144Z,81.50
2022-10-18T22:08:56.463Z,81.67
2022-10-18T22:11:28.847Z,82.42
2022-10-18T22:13:57.196Z,82.41
2022-10-18T22:16:25.558Z,81.84
2022-10-18T22:18:54.894Z,81.89
2022-10-18T22:21:22.863Z,81.71
2022-10-18T22:23:52.753Z,82.75
2022-10-18T22:26:24.493Z,81.65
2022-10-18T22:28:57.025Z,81.85
2022-10-18T22:31:27.876Z,82.10
2022-10-18T22:33:57.095Z,81.01
2022-10-18T22:36:26.390Z,80.92
2022-10-18T22:38:54.693Z,80.55
2022-10-18T22:41:24.332Z,81.49
2022-10-18T22:43:53.482Z,81.30
2022-10-18T22:46:22.200Z,80.76
2022-10-18T22:48:50.996Z,81.10
2022-10-18T22:51:19.874Z,81.39
2022-10-18T22:53:48.098Z,81.25
2022-10-18T22:56:18.379Z,82.02
2022-10-18T22:58:48.127Z,82.08
2022-10-18T23:01:18.003Z,81.44
2022-10-18T23:03:46.135Z,81.39
2022-10-18T23:06:22.580Z,81.60
2022-10-18T23:08:51.496Z,81.59
2022-10-18T23:11:20.078Z,81.05
2022-10-18T23:13:49.685Z,81.03
2022-10-18T23:16:18.669Z,81.51
2022-10-18T23:18:50.708Z,81.81
2022-10-18T23:21:19.357Z,81.43
2022-10-18T23:23:47.855Z,81.04
2022-10-18T23:26:17.600Z,80.30
2022-10-18T23:28:47.444Z,81.29
2022-10-18T23:31:19.164Z,81.87
2022-10-18T23:33:48.482Z,81.78
2022-10-18T23:36:17.358Z,80.94
2022-10-18T23:38:45.971Z,81.32
2022-10-18T23:41:15.581Z,80.97
2022-10-18T23:43:44.827Z,81.20
2022-10-18T23:46:14.490Z,81.15
2022-10-18T23:48:44.574Z,81.86
2022-10-18T23:51:12.658Z,82.30
2022-10-18T23:53:41.262Z,82.05
2022-10-18T23:56:11.843Z,82.18
2022-10-18T23:58:40.862Z,82.03
